Time;durP1;ratioP1;P1;durP2;ratioP2;P2;SDS_P1;SDS_P2;PMS_P1;PMS_P2;Temp;Humidity;BMP_temperature;BMP_pressure;BME280_temperature;BME280_humidity;BME280_pressure;Samples;Min_cycle;Max_cycle;Signal;HPM_P1;HPM_P2
2023/11/24 00:02:21;;;;;;;0.20;0.20;;;;;;;8.38;75.01;100888.81;5015789;28;20033;-91
2023/11/24 00:04:47;;;;;;;0.10;0.10;;;;;;;8.34;75.42;100875.16;4999256;28;20025;-90
2023/11/24 00:07:12;;;;;;;0.20;0.20;;;;;;;8.36;74.91;100879.41;5033111;28;20033;-89
2023/11/24 00:09:38;;;;;;;0.10;0.10;;;;;;;8.33;75.31;100883.75;5015592;28;20033;-90
2023/11/24 00:12:03;;;;;;;0.10;0.10;;;;;;;8.43;74.81;100868.84;5015227;28;20083;-90
2023/11/24 00:14:29;;;;;;;0.20;0.20;;;;;;;8.49;75.32;100870.38;5015500;28;20029;-90
2023/11/24 00:16:54;;;;;;;0.13;0.13;;;;;;;8.41;75.25;100867.22;5015367;28;20487;-90
2023/11/24 00:19:20;;;;;;;0.10;0.10;;;;;;;8.38;75.58;100849.31;5031897;28;20510;-91
2023/11/24 00:21:49;;;;;;;0.20;0.20;;;;;;;8.46;75.30;100852.44;5015462;28;20546;-90
2023/11/24 00:24:16;;;;;;;0.20;0.20;;;;;;;8.37;75.45;100845.03;5015691;28;20087;-92
2023/11/24 00:26:41;;;;;;;0.20;0.20;;;;;;;8.33;75.21;100832.22;5014768;28;20402;-90
2023/11/24 00:29:07;;;;;;;0.20;0.20;;;;;;;8.32;75.71;100829.69;5015127;28;20026;-89
2023/11/24 00:31:33;;;;;;;0.10;0.10;;;;;;;8.38;74.89;100826.09;4998689;28;20025;-92
2023/11/24 00:33:58;;;;;;;0.20;0.20;;;;;;;8.31;76.01;100810.81;5015109;28;20071;-89
2023/11/24 00:36:24;;;;;;;0.20;0.20;;;;;;;8.21;75.78;100806.88;5015127;28;20033;-90
2023/11/24 00:38:49;;;;;;;0.10;0.10;;;;;;;8.23;75.43;100811.97;4998234;28;20078;-89
2023/11/24 00:41:16;;;;;;;0.10;0.10;;;;;;;8.19;75.74;100806.09;5031364;28;20037;-90
2023/11/24 00:43:42;;;;;;;0.20;0.20;;;;;;;8.31;75.13;100805.66;5031478;28;20033;-90
2023/11/24 00:46:11;;;;;;;0.10;0.10;;;;;;;8.10;75.67;100803.03;5014604;28;20064;-91
2023/11/24 00:48:37;;;;;;;0.20;0.20;;;;;;;8.13;75.77;100801.16;5014997;28;20041;-90
2023/11/24 00:51:04;;;;;;;0.10;0.10;;;;;;;8.10;75.66;100774.69;4998400;28;20037;-90
2023/11/24 00:53:30;;;;;;;0.20;0.20;;;;;;;7.95;75.54;100752.88;5014504;28;20037;-91
2023/11/24 00:55:56;;;;;;;0.20;0.20;;;;;;;8.21;75.67;100768.22;5014416;28;20029;-90
2023/11/24 00:58:22;;;;;;;0.20;0.20;;;;;;;8.25;75.29;100769.78;4998603;28;20025;-89
2023/11/24 01:00:47;;;;;;;0.20;0.20;;;;;;;8.22;75.04;100756.19;5014612;28;20029;-90
2023/11/24 01:03:13;;;;;;;0.10;0.10;;;;;;;8.24;75.11;100747.50;5014431;28;20037;-90
2023/11/24 01:05:38;;;;;;;0.20;0.20;;;;;;;8.12;75.16;100731.66;5030823;28;20091;-89
2023/11/24 01:08:04;;;;;;;0.20;0.20;;;;;;;8.24;74.95;100742.34;5030654;28;20415;-91
2023/11/24 01:10:29;;;;;;;0.20;0.20;;;;;;;8.13;75.11;100723.84;5014311;28;20067;-89
2023/11/24 01:12:55;;;;;;;0.10;0.10;;;;;;;8.21;74.82;100733.88;5014252;28;20049;-90
2023/11/24 01:15:21;;;;;;;0.20;0.20;;;;;;;8.20;74.55;100715.00;5014434;28;20029;-89
2023/11/24 01:17:46;;;;;;;0.10;0.10;;;;;;;8.18;74.77;100716.81;4998078;28;20023;-92
2023/11/24 01:20:12;;;;;;;0.20;0.20;;;;;;;8.10;74.42;100705.94;5014388;28;20026;-90
2023/11/24 01:22:38;;;;;;;0.10;0.10;;;;;;;8.05;75.02;100697.53;5013736;28;20359;-89
2023/11/24 01:25:04;;;;;;;0.20;0.20;;;;;;;7.99;75.43;100685.75;5013667;28;20037;-87
2023/11/24 01:27:30;;;;;;;0.20;0.20;;;;;;;8.01;75.22;100694.25;4997850;28;20052;-88
2023/11/24 01:29:55;;;;;;;0.10;0.10;;;;;;;8.07;75.41;100682.88;5031566;28;20432;-91
2023/11/24 01:32:21;;;;;;;0.20;0.20;;;;;;;8.09;75.52;100683.66;5030616;28;20029;-90
2023/11/24 01:34:46;;;;;;;0.20;0.20;;;;;;;8.11;75.53;100683.59;5030023;28;20079;-89
2023/11/24 01:37:12;;;;;;;0.10;0.10;;;;;;;8.06;75.67;100670.88;5013756;28;20068;-88
2023/11/24 01:39:37;;;;;;;0.20;0.20;;;;;;;8.11;75.67;100668.97;5013938;28;20033;-89
2023/11/24 01:42:04;;;;;;;0.10;0.10;;;;;;;8.29;75.04;100667.44;5031418;28;20082;-89
2023/11/24 01:44:30;;;;;;;0.10;0.10;;;;;;;8.26;74.89;100652.94;5013988;28;20041;-89
2023/11/24 01:46:55;;;;;;;0.10;0.10;;;;;;;8.34;74.63;100660.34;5013802;28;20029;-90
2023/11/24 01:49:21;;;;;;;0.13;0.13;;;;;;;8.42;74.70;100648.03;5013871;28;20120;-91
2023/11/24 01:51:48;;;;;;;0.20;0.20;;;;;;;8.50;74.58;100640.84;5013449;28;20510;-89
2023/11/24 01:54:14;;;;;;;0.20;0.20;;;;;;;8.50;74.46;100640.00;5030349;28;20029;-91
2023/11/24 01:56:40;;;;;;;0.20;0.20;;;;;;;8.59;74.23;100643.03;5013812;28;20041;-89
2023/11/24 01:59:06;;;;;;;0.20;0.20;;;;;;;8.63;74.18;100634.28;5030528;28;20029;-89
2023/11/24 02:01:31;;;;;;;0.10;0.10;;;;;;;8.58;74.37;100612.16;5018070;28;20021;-88
2023/11/24 02:03:57;;;;;;;0.20;0.20;;;;;;;8.60;74.11;100611.19;5017702;28;20044;-90
2023/11/24 02:06:23;;;;;;;0.20;0.20;;;;;;;8.75;74.18;100616.63;5033902;28;20770;-90
2023/11/24 02:08:48;;;;;;;0.20;0.20;;;;;;;8.72;73.91;100602.09;5034176;28;20029;-91
2023/11/24 02:11:14;;;;;;;0.10;0.10;;;;;;;8.81;73.94;100606.88;5017253;28;20056;-92
2023/11/24 02:13:39;;;;;;;0.20;0.20;;;;;;;8.75;73.86;100603.72;5034241;28;20093;-92
2023/11/24 02:16:05;;;;;;;0.10;0.10;;;;;;;8.76;73.80;100590.78;5001338;28;20091;-89
2023/11/24 02:18:31;;;;;;;0.20;0.20;;;;;;;8.67;73.94;100586.00;5035226;28;20434;-91
2023/11/24 02:20:57;;;;;;;0.20;0.20;;;;;;;8.72;73.54;100578.91;5017019;28;20036;-89
2023/11/24 02:23:22;;;;;;;0.20;0.20;;;;;;;8.73;73.26;100570.25;5001101;28;20025;-90
2023/11/24 02:25:48;;;;;;;0.20;0.20;;;;;;;8.73;73.79;100565.09;5017609;28;20033;-91
2023/11/24 02:28:13;;;;;;;0.20;0.20;;;;;;;8.76;73.53;100572.72;5017225;28;20091;-91
2023/11/24 02:30:39;;;;;;;0.20;0.20;;;;;;;8.82;73.16;100567.28;5016935;28;20041;-90
2023/11/24 02:33:05;;;;;;;0.20;0.20;;;;;;;8.80;73.16;100556.19;5001095;28;20033;-90
2023/11/24 02:35:31;;;;;;;0.13;0.13;;;;;;;8.72;73.49;100550.53;5016790;28;20399;-89
2023/11/24 02:37:57;;;;;;;0.10;0.10;;;;;;;8.71;74.15;100554.00;5017538;28;20026;-90
2023/11/24 02:40:23;;;;;;;0.20;0.20;;;;;;;8.65;74.38;100550.84;5016796;28;20057;-90
2023/11/24 02:42:49;;;;;;;0.20;0.20;;;;;;;8.60;74.21;100533.00;5017082;28;20025;-90
2023/11/24 02:45:14;;;;;;;0.20;0.20;;;;;;;8.71;74.14;100541.13;5033286;28;20099;-89
2023/11/24 02:47:40;;;;;;;0.10;0.10;;;;;;;8.83;73.48;100532.84;5017028;28;20059;-90
2023/11/24 02:50:07;;;;;;;0.20;0.20;;;;;;;8.82;73.31;100522.59;5000149;28;20033;-91
2023/11/24 02:52:33;;;;;;;0.20;0.20;;;;;;;8.76;73.70;100512.56;5033357;28;20043;-91
2023/11/24 02:54:58;;;;;;;0.20;0.20;;;;;;;8.78;73.79;100505.59;5034284;28;20464;-93
2023/11/24 02:57:23;;;;;;;0.20;0.20;;;;;;;8.79;73.64;100499.53;5033192;28;20079;-92
2023/11/24 02:59:49;;;;;;;0.20;0.20;;;;;;;8.63;74.06;100474.38;5016735;28;20064;-91
2023/11/24 03:02:14;;;;;;;0.20;0.20;;;;;;;8.81;74.09;100489.97;5033426;28;20029;-90
2023/11/24 03:04:40;;;;;;;0.20;0.20;;;;;;;8.78;73.93;100490.94;5016414;28;20067;-90
2023/11/24 03:07:05;;;;;;;0.20;0.20;;;;;;;8.70;74.31;100487.84;5016596;28;20072;-90
2023/11/24 03:09:32;;;;;;;0.20;0.20;;;;;;;8.76;74.39;100482.44;5000198;28;20029;-91
2023/11/24 03:11:57;;;;;;;0.20;0.20;;;;;;;8.73;74.51;100477.41;5032756;28;20403;-91
2023/11/24 03:14:23;;;;;;;0.20;0.20;;;;;;;8.74;74.43;100471.34;5033061;28;20033;-91
2023/11/24 03:16:49;;;;;;;0.10;0.10;;;;;;;8.77;74.62;100462.66;5016662;28;20141;-91
2023/11/24 03:19:15;;;;;;;0.20;0.20;;;;;;;8.78;74.12;100464.31;5016304;28;20427;-90
2023/11/24 03:21:40;;;;;;;0.10;0.10;;;;;;;8.76;74.54;100451.50;5016403;28;20029;-92
2023/11/24 03:24:06;;;;;;;0.20;0.20;;;;;;;8.68;74.05;100442.41;5016597;28;20030;-90
2023/11/24 03:26:32;;;;;;;0.10;0.10;;;;;;;8.60;74.74;100430.69;5016413;28;20087;-91
2023/11/24 03:28:57;;;;;;;0.10;0.10;;;;;;;8.63;75.21;100430.53;5016391;28;20030;-90
2023/11/24 03:31:23;;;;;;;0.20;0.20;;;;;;;8.60;75.15;100419.53;5016421;28;20044;-90
2023/11/24 03:33:49;;;;;;;0.20;0.20;;;;;;;8.69;75.14;100419.13;5016101;28;20053;-91
2023/11/24 03:36:14;;;;;;;0.10;0.10;;;;;;;8.62;75.56;100434.03;5016152;28;20087;-90
2023/11/24 03:38:39;;;;;;;0.20;0.20;;;;;;;8.67;75.27;100433.84;5032706;28;20052;-90
2023/11/24 03:41:05;;;;;;;0.20;0.20;;;;;;;8.67;75.76;100427.84;5016093;28;20086;-90
2023/11/24 03:43:30;;;;;;;0.10;0.10;;;;;;;8.70;75.90;100431.13;5033551;28;20025;-90
2023/11/24 03:45:56;;;;;;;0.20;0.20;;;;;;;8.68;75.60;100427.78;5015474;28;20064;-90
2023/11/24 03:48:22;;;;;;;0.10;0.10;;;;;;;8.64;75.98;100410.75;5016021;28;20059;-91
2023/11/24 03:50:53;;;;;;;0.20;0.20;;;;;;;8.64;76.56;100415.91;5015582;28;20487;-91
2023/11/24 03:53:19;;;;;;;0.20;0.20;;;;;;;8.68;76.29;100402.00;5016290;28;20106;-91
2023/11/24 03:55:44;;;;;;;0.10;0.10;;;;;;;8.70;76.54;100397.59;5015804;28;20037;-89
2023/11/24 03:58:09;;;;;;;0.20;0.20;;;;;;;8.66;76.54;100395.22;5032282;28;20033;-87
2023/11/24 04:00:36;;;;;;;0.20;0.20;;;;;;;8.71;76.74;100380.38;5014829;28;20056;-87
2023/11/24 04:03:02;;;;;;;0.10;0.10;;;;;;;8.77;76.91;100370.63;5014324;28;20049;-88
2023/11/24 04:05:27;;;;;;;0.20;0.20;;;;;;;8.74;77.26;100386.22;5014747;28;20108;-87
2023/11/24 04:07:53;;;;;;;0.20;0.20;;;;;;;8.81;77.35;100363.56;5015077;28;20113;-89
2023/11/24 04:10:18;;;;;;;0.10;0.10;;;;;;;8.63;77.29;100348.03;5014780;28;20025;-89
2023/11/24 04:12:44;;;;;;;0.10;0.10;;;;;;;8.74;77.39;100365.59;5014647;28;20036;-89
2023/11/24 04:15:10;;;;;;;0.20;0.20;;;;;;;8.79;77.15;100347.34;5014891;28;20029;-88
2023/11/24 04:17:36;;;;;;;0.20;0.20;;;;;;;8.65;77.38;100322.16;5014681;28;20075;-89
2023/11/24 04:20:01;;;;;;;0.20;0.20;;;;;;;8.65;77.67;100342.78;4998443;28;20499;-88
2023/11/24 04:22:27;;;;;;;0.20;0.20;;;;;;;8.75;77.66;100341.50;5013957;28;20053;-89
2023/11/24 04:24:53;;;;;;;0.20;0.20;;;;;;;8.67;77.69;100335.00;5014486;28;20482;-88
2023/11/24 04:27:18;;;;;;;0.20;0.20;;;;;;;8.70;77.60;100327.97;5030830;28;20025;-88
2023/11/24 04:29:44;;;;;;;0.20;0.20;;;;;;;8.73;77.65;100320.06;5030939;28;20025;-88
2023/11/24 04:32:09;;;;;;;0.20;0.20;;;;;;;8.71;77.45;100305.59;5014157;28;20033;-88
2023/11/24 04:34:35;;;;;;;0.20;0.20;;;;;;;8.80;77.71;100324.06;5031116;28;20029;-88
2023/11/24 04:37:00;;;;;;;0.20;0.20;;;;;;;8.82;78.24;100322.22;4997849;28;20037;-88
2023/11/24 04:39:26;;;;;;;0.20;0.20;;;;;;;8.65;78.15;100277.50;5030908;28;20034;-90
2023/11/24 04:41:52;;;;;;;0.10;0.10;;;;;;;8.71;78.17;100303.84;5032332;28;20083;-90
2023/11/24 04:44:17;;;;;;;0.10;0.10;;;;;;;8.73;78.11;100320.06;5004049;28;20021;-88
2023/11/24 04:46:43;;;;;;;0.20;0.20;;;;;;;8.73;78.56;100316.66;4994275;28;20065;-91
2023/11/24 04:49:08;;;;;;;0.20;0.20;;;;;;;8.74;78.55;100318.34;4995005;28;20495;-89
2023/11/24 04:51:34;;;;;;;0.20;0.20;;;;;;;8.71;78.34;100318.47;4994458;28;20030;-90
2023/11/24 04:54:02;;;;;;;0.20;0.20;;;;;;;8.71;78.77;100318.47;4994841;28;20025;-91
2023/11/24 04:56:28;;;;;;;0.10;0.10;;;;;;;8.71;78.96;100333.94;4995005;28;20065;-90
2023/11/24 04:58:54;;;;;;;0.20;0.20;;;;;;;8.78;78.43;100325.88;5010637;28;20184;-91
2023/11/24 05:01:20;;;;;;;0.10;0.10;;;;;;;8.69;78.64;100308.25;4994549;28;20500;-89
2023/11/24 05:03:48;;;;;;;0.20;0.20;;;;;;;8.78;78.20;100327.63;5029407;28;20026;-91
2023/11/24 05:06:14;;;;;;;0.20;0.20;;;;;;;8.65;78.25;100319.59;4967078;28;20124;-92
2023/11/24 05:08:39;;;;;;;0.10;0.10;;;;;;;8.59;78.77;100309.56;5011834;28;20486;-92
2023/11/24 05:11:08;;;;;;;0.10;0.10;;;;;;;8.60;78.70;100308.66;5011635;28;20030;-89
2023/11/24 05:13:33;;;;;;;0.20;0.20;;;;;;;8.70;78.53;100309.91;5009380;28;20562;-90
2023/11/24 05:15:59;;;;;;;0.20;0.20;;;;;;;8.73;78.22;100307.19;4992489;28;20061;-91
2023/11/24 05:18:24;;;;;;;0.20;0.20;;;;;;;8.74;78.45;100302.84;5025560;28;20048;-90
2023/11/24 05:20:51;;;;;;;0.20;0.20;;;;;;;8.66;78.40;100297.25;5017785;28;20520;-88
2023/11/24 05:23:16;;;;;;;0.20;0.20;;;;;;;8.64;78.31;100302.44;5011714;28;20030;-90
2023/11/24 05:25:42;;;;;;;0.10;0.10;;;;;;;8.66;78.81;100318.72;4995257;28;20029;-93
2023/11/24 05:28:08;;;;;;;0.20;0.20;;;;;;;8.61;78.74;100310.31;5018716;28;20036;-85
2023/11/24 05:30:34;;;;;;;0.20;0.20;;;;;;;8.70;78.36;100312.50;4994590;28;20117;-87
2023/11/24 05:33:01;;;;;;;0.20;0.20;;;;;;;8.69;78.09;100315.13;5009148;28;20095;-86
2023/11/24 05:35:27;;;;;;;0.20;0.20;;;;;;;8.59;77.97;100335.34;5011050;28;20040;-90
2023/11/24 05:37:52;;;;;;;0.20;0.20;;;;;;;8.53;77.75;100345.94;5010658;28;20022;-88
2023/11/24 05:40:18;;;;;;;0.20;0.20;;;;;;;8.43;77.51;100329.19;4993016;28;20038;-85
2023/11/24 05:42:44;;;;;;;0.20;0.20;;;;;;;8.31;77.39;100326.25;5006397;28;20034;-83
2023/11/24 05:45:10;;;;;;;0.10;0.10;;;;;;;8.31;76.97;100331.41;5009592;28;20056;-84
2023/11/24 05:47:36;;;;;;;0.20;0.20;;;;;;;8.13;77.91;100314.16;4960875;28;20037;-90
2023/11/24 05:50:05;;;;;;;0.20;0.20;;;;;;;8.09;77.01;100299.75;4975845;28;20058;-87
2023/11/24 05:52:32;;;;;;;0.20;0.20;;;;;;;8.11;78.59;100303.09;4987001;28;20031;-92
2023/11/24 05:54:58;;;;;;;0.10;0.10;;;;;;;8.09;77.58;100302.31;4991919;28;20038;-91
2023/11/24 05:57:24;;;;;;;0.10;0.10;;;;;;;8.11;77.58;100287.63;4973440;28;20131;-92
2023/11/24 05:59:50;;;;;;;0.10;0.10;;;;;;;8.05;76.81;100277.56;4974483;28;20145;-90
2023/11/24 06:02:15;;;;;;;0.20;0.20;;;;;;;8.15;76.69;100285.75;4977275;28;20507;-86
2023/11/24 06:04:41;;;;;;;0.20;0.20;;;;;;;8.10;77.19;100277.41;4965666;28;20030;-86
2023/11/24 06:07:06;;;;;;;0.10;0.10;;;;;;;8.17;77.19;100266.75;4940729;28;20108;-90
2023/11/24 06:09:33;;;;;;;0.20;0.20;;;;;;;8.37;80.55;100272.78;4970656;28;20088;-86
2023/11/24 06:11:59;;;;;;;0.20;0.20;;;;;;;8.31;77.05;100268.69;4994822;28;20029;-90
2023/11/24 06:14:24;;;;;;;0.10;0.10;;;;;;;8.52;78.12;100252.28;4994381;28;20113;-91
2023/11/24 06:16:50;;;;;;;0.20;0.20;;;;;;;8.51;75.56;100245.47;4958772;28;20105;-89
2023/11/24 06:19:15;;;;;;;0.10;0.10;;;;;;;8.55;75.76;100256.44;4968789;28;20035;-88
2023/11/24 06:21:41;;;;;;;0.20;0.20;;;;;;;8.61;76.21;100241.53;4981198;28;20033;-90
2023/11/24 06:24:07;;;;;;;0.10;0.10;;;;;;;8.76;75.90;100250.31;5004272;28;20022;-90
2023/11/24 06:26:34;;;;;;;0.20;0.20;;;;;;;8.80;75.82;100251.84;4988066;28;20041;-89
2023/11/24 06:28:59;;;;;;;0.20;0.20;;;;;;;8.81;74.71;100248.34;4990814;28;20069;-91
2023/11/24 06:31:25;;;;;;;0.20;0.20;;;;;;;8.85;74.57;100249.88;4978891;28;20034;-94
2023/11/24 06:33:51;;;;;;;0.17;0.17;;;;;;;8.85;75.10;100243.88;4990804;28;20037;-89
2023/11/24 06:36:17;;;;;;;0.20;0.20;;;;;;;8.80;74.64;100236.34;4986954;28;20034;-91
2023/11/24 06:38:42;;;;;;;0.20;0.20;;;;;;;8.85;75.69;100239.56;4980284;28;20041;-90
2023/11/24 06:41:08;;;;;;;0.20;0.20;;;;;;;8.86;75.03;100227.50;4974721;28;20042;-88
2023/11/24 06:43:34;;;;;;;0.20;0.20;;;;;;;8.90;74.83;100219.53;4973896;28;20041;-85
2023/11/24 06:46:01;;;;;;;0.13;0.13;;;;;;;9.14;74.87;100221.81;4995714;28;20065;-93
2023/11/24 06:48:28;;;;;;;0.10;0.10;;;;;;;9.15;74.72;100226.09;4994765;28;20121;-92
2023/11/24 06:50:54;;;;;;;0.20;0.20;;;;;;;9.29;74.84;100215.91;5012143;28;20041;-92
2023/11/24 06:53:19;;;;;;;0.10;0.10;;;;;;;9.31;74.24;100214.06;4992299;28;20092;-88
2023/11/24 06:55:45;;;;;;;0.20;0.20;;;;;;;9.23;73.80;100212.78;5010074;28;20034;-93
2023/11/24 06:58:10;;;;;;;0.20;0.20;;;;;;;9.19;74.14;100199.19;5009420;28;20508;-87
2023/11/24 07:00:36;;;;;;;0.20;0.20;;;;;;;9.14;74.41;100214.06;5017606;28;20025;-90
2023/11/24 07:03:02;;;;;;;0.20;0.20;;;;;;;9.06;75.35;100211.06;5012133;28;20423;-90
2023/11/24 07:05:28;;;;;;;0.10;0.10;;;;;;;9.09;75.57;100205.72;5013913;28;20033;-92
2023/11/24 07:07:54;;;;;;;0.20;0.20;;;;;;;9.18;75.88;100200.13;5021276;28;20025;-92
2023/11/24 07:10:22;;;;;;;0.20;0.20;;;;;;;9.24;75.27;100184.31;4985447;28;20513;-89
2023/11/24 07:12:48;;;;;;;0.10;0.10;;;;;;;9.37;75.58;100187.13;5014132;28;20025;-93
2023/11/24 07:15:13;;;;;;;0.20;0.20;;;;;;;9.39;75.11;100168.06;5010163;28;20030;-89
2023/11/24 07:17:39;;;;;;;0.20;0.20;;;;;;;9.46;74.84;100173.75;4995393;28;20064;-94
2023/11/24 07:20:05;;;;;;;0.20;0.20;;;;;;;9.50;75.40;100180.41;4979185;28;20054;-91
2023/11/24 07:22:31;;;;;;;0.20;0.20;;;;;;;9.57;74.57;100178.34;4982358;28;20036;-88
2023/11/24 07:24:59;;;;;;;0.20;0.20;;;;;;;9.62;74.97;100173.75;4998373;28;20407;-91
2023/11/24 07:27:24;;;;;;;0.20;0.20;;;;;;;9.57;74.33;100155.09;5013227;28;20053;-91
2023/11/24 07:29:50;;;;;;;0.20;0.20;;;;;;;9.63;73.88;100165.09;4999760;28;20041;-92
2023/11/24 07:32:16;;;;;;;0.20;0.20;;;;;;;9.67;74.33;100171.78;5017509;28;20030;-89
2023/11/24 07:34:42;;;;;;;0.20;0.20;;;;;;;9.62;74.50;100171.19;4994050;28;20030;-83
2023/11/24 07:37:08;;;;;;;0.20;0.20;;;;;;;9.66;74.71;100177.88;5011048;28;20535;-85
2023/11/24 07:39:33;;;;;;;0.20;0.20;;;;;;;9.75;74.15;100182.56;4989366;28;20026;-92
2023/11/24 07:41:59;;;;;;;0.10;0.10;;;;;;;9.78;74.15;100159.16;5024301;28;20424;-87
2023/11/24 07:44:30;;;;;;;0.20;0.20;;;;;;;9.88;73.80;100165.50;5019698;28;20042;-94
2023/11/24 07:46:55;;;;;;;0.20;0.20;;;;;;;9.95;73.83;100166.84;4969838;28;20034;-91
2023/11/24 07:49:21;;;;;;;0.20;0.20;;;;;;;9.98;73.77;100161.50;4992100;28;20022;-85
2023/11/24 07:51:46;;;;;;;0.20;0.20;;;;;;;9.95;73.57;100153.91;5008865;28;20033;-89
2023/11/24 07:54:12;;;;;;;0.10;0.10;;;;;;;9.94;73.84;100144.50;4994722;28;20475;-88
2023/11/24 07:56:38;;;;;;;0.20;0.20;;;;;;;10.01;73.39;100140.66;4977900;28;20041;-86
2023/11/24 07:59:04;;;;;;;0.20;0.20;;;;;;;9.94;73.43;100120.41;5012773;28;20029;-90
2023/11/24 08:01:30;;;;;;;0.20;0.20;;;;;;;10.13;72.94;100112.47;4994007;28;20037;-86
2023/11/24 08:03:55;;;;;;;0.20;0.20;;;;;;;10.28;73.66;100133.16;4994448;28;20037;-84
2023/11/24 08:06:21;;;;;;;0.20;0.20;;;;;;;10.33;72.90;100114.84;5000276;28;20030;-92
2023/11/24 08:08:46;;;;;;;0.20;0.20;;;;;;;10.48;72.13;100108.78;5015951;28;20080;-92
2023/11/24 08:11:12;;;;;;;0.20;0.20;;;;;;;10.54;72.58;100111.03;5013951;28;20036;-89
2023/11/24 08:13:38;;;;;;;0.20;0.20;;;;;;;10.52;72.07;100080.97;4982303;28;20041;-87
2023/11/24 08:16:04;;;;;;;0.10;0.10;;;;;;;10.68;71.73;100104.22;4992919;28;20026;-88
2023/11/24 08:18:29;;;;;;;0.20;0.20;;;;;;;10.87;71.68;100110.00;5011481;28;20033;-90
2023/11/24 08:20:55;;;;;;;0.20;0.20;;;;;;;11.00;72.02;100113.53;5011438;28;20041;-87
2023/11/24 08:23:21;;;;;;;0.20;0.20;;;;;;;11.06;71.85;100095.06;5012639;28;20064;-90
2023/11/24 08:25:46;;;;;;;0.20;0.20;;;;;;;11.13;71.98;100100.72;4994044;28;20195;-91
2023/11/24 08:28:12;;;;;;;0.20;0.20;;;;;;;11.32;71.77;100101.28;4979540;28;20064;-92
2023/11/24 08:30:38;;;;;;;0.20;0.20;;;;;;;11.41;69.69;100076.59;4981618;28;20083;-91
2023/11/24 08:33:03;;;;;;;0.20;0.20;;;;;;;11.45;70.00;100067.69;4981169;28;20028;-92
2023/11/24 08:35:29;;;;;;;0.20;0.20;;;;;;;11.68;69.18;100082.63;5010125;28;20108;-93
2023/11/24 08:37:55;;;;;;;0.20;0.20;;;;;;;11.56;69.77;100047.13;4993581;28;20506;-88
2023/11/24 08:40:21;;;;;;;0.13;0.13;;;;;;;11.72;69.51;100055.63;5020764;28;20076;-87
2023/11/24 08:42:47;;;;;;;0.20;0.20;;;;;;;11.78;69.29;100057.81;5005074;28;20044;-82
2023/11/24 08:45:16;;;;;;;0.20;0.20;;;;;;;11.99;69.18;100070.38;5009562;28;20052;-87
2023/11/24 08:47:42;;;;;;;0.13;0.13;;;;;;;12.06;69.42;100069.91;4990999;28;20487;-85
2023/11/24 08:50:13;;;;;;;0.20;0.20;;;;;;;12.04;69.20;100063.16;5010654;28;20061;-90
2023/11/24 08:52:41;;;;;;;0.20;0.20;;;;;;;12.09;69.33;100055.06;4980681;28;20442;-90
2023/11/24 08:55:08;;;;;;;0.20;0.20;;;;;;;12.22;69.28;100061.16;5009011;28;20034;-89
2023/11/24 08:57:33;;;;;;;0.17;0.17;;;;;;;12.26;69.01;100042.69;5004591;28;20546;-87
2023/11/24 08:59:59;;;;;;;0.10;0.10;;;;;;;12.42;68.54;100052.06;5008950;28;20141;-86
2023/11/24 09:02:28;;;;;;;0.20;0.20;;;;;;;12.51;68.39;100041.09;5013255;28;20021;-87
2023/11/24 09:04:54;;;;;;;0.10;0.10;;;;;;;12.64;68.42;100054.91;4998991;28;20431;-86
2023/11/24 09:07:19;;;;;;;0.17;0.17;;;;;;;12.70;68.85;100038.09;5010964;28;20079;-90
2023/11/24 09:09:45;;;;;;;0.20;0.20;;;;;;;12.81;68.77;100020.88;5007604;28;20443;-85
2023/11/24 09:12:12;;;;;;;0.10;0.10;;;;;;;13.01;66.79;100024.72;5008155;28;20452;-87
2023/11/24 09:14:40;;;;;;;0.20;0.20;;;;;;;12.83;66.72;100026.78;5014974;28;20247;-87
2023/11/24 09:17:08;;;;;;;0.20;0.20;;;;;;;12.73;66.56;100017.97;4988267;28;20026;-85
2023/11/24 09:19:34;;;;;;;0.20;0.20;;;;;;;12.68;67.38;100021.78;4994493;28;20050;-90
2023/11/24 09:22:00;;;;;;;0.20;0.20;;;;;;;12.71;67.41;100014.66;4991203;28;20034;-84
2023/11/24 09:24:27;;;;;;;0.20;0.20;;;;;;;12.62;67.30;99997.91;4994363;28;20041;-91
2023/11/24 09:26:53;;;;;;;0.10;0.10;;;;;;;12.69;67.52;99995.75;5007973;28;20041;-91
2023/11/24 09:29:19;;;;;;;0.10;0.10;;;;;;;12.73;67.10;99991.19;4994872;28;20026;-86
2023/11/24 09:31:48;;;;;;;0.20;0.20;;;;;;;12.85;67.24;99992.94;5023853;28;20037;-85
2023/11/24 09:34:13;;;;;;;0.20;0.20;;;;;;;12.92;67.77;99989.81;4996106;28;20041;-83
2023/11/24 09:36:41;;;;;;;0.20;0.20;;;;;;;12.89;67.79;99989.22;5005807;28;20026;-88
2023/11/24 09:39:10;;;;;;;0.20;0.20;;;;;;;12.93;67.20;99975.06;5002436;28;20498;-89
2023/11/24 09:41:38;;;;;;;0.10;0.10;;;;;;;13.08;67.19;99983.59;5004957;28;20097;-93
2023/11/24 09:44:06;;;;;;;0.10;0.10;;;;;;;13.11;67.55;99973.81;4977425;28;20072;-90
2023/11/24 09:46:31;;;;;;;0.20;0.20;;;;;;;13.30;67.55;99970.78;4997827;28;20056;-88
2023/11/24 09:48:57;;;;;;;0.20;0.20;;;;;;;13.23;67.20;99929.75;4996411;28;20033;-90
2023/11/24 09:51:22;;;;;;;0.10;0.10;;;;;;;13.49;67.25;99957.31;4983226;28;20044;-93
2023/11/24 09:53:48;;;;;;;0.20;0.20;;;;;;;13.51;67.50;99936.41;4996306;28;20033;-92
2023/11/24 09:56:14;;;;;;;0.20;0.20;;;;;;;13.71;66.90;99944.44;5012164;28;20033;-86
2023/11/24 09:58:42;;;;;;;0.10;0.10;;;;;;;13.76;66.60;99938.88;5007787;28;20060;-88
2023/11/24 10:01:15;;;;;;;0.10;0.10;;;;;;;13.82;66.00;99943.63;5015655;28;20044;-90
2023/11/24 10:03:40;;;;;;;0.20;0.20;;;;;;;14.02;72.41;99930.00;4999564;28;20038;-93
2023/11/24 10:06:10;;;;;;;0.10;0.10;;;;;;;14.44;67.73;99937.28;4994705;28;20025;-91
2023/11/24 10:08:39;;;;;;;0.20;0.20;;;;;;;14.42;64.20;99936.59;5015539;28;20029;-87
2023/11/24 10:11:09;;;;;;;0.10;0.10;;;;;;;14.28;64.42;99935.03;4999530;28;20041;-91
2023/11/24 10:13:35;;;;;;;0.20;0.20;;;;;;;14.15;64.92;99942.09;5012722;28;20022;-89
2023/11/24 10:16:03;;;;;;;0.20;0.20;;;;;;;14.09;65.81;99926.94;5025285;28;20483;-89
2023/11/24 10:18:29;;;;;;;0.20;0.20;;;;;;;14.14;67.32;99927.41;5007132;28;20026;-90
2023/11/24 10:20:55;;;;;;;0.20;0.20;;;;;;;14.07;66.59;99911.47;5008998;28;20602;-89
2023/11/24 10:23:20;;;;;;;0.10;0.10;;;;;;;14.20;66.88;99921.78;4989666;28;20036;-88
2023/11/24 10:25:46;;;;;;;0.10;0.10;;;;;;;14.12;67.31;99913.72;4993704;28;20022;-83
2023/11/24 10:28:11;;;;;;;0.20;0.20;;;;;;;14.00;67.70;99895.47;4996604;28;20065;-81
2023/11/24 10:30:38;;;;;;;0.10;0.10;;;;;;;14.14;67.26;99909.22;5026419;28;20085;-85
2023/11/24 10:33:04;;;;;;;0.17;0.17;;;;;;;14.29;67.64;99919.31;5004790;28;20052;-85
2023/11/24 10:35:29;;;;;;;0.20;0.20;;;;;;;14.34;67.92;99908.53;4994766;28;20127;-83
2023/11/24 10:37:55;;;;;;;0.10;0.10;;;;;;;14.33;68.29;99909.50;5013079;28;20479;-92
2023/11/24 10:40:21;;;;;;;0.20;0.20;;;;;;;14.51;67.02;99900.31;5001067;28;20026;-88
2023/11/24 10:42:47;;;;;;;0.10;0.10;;;;;;;14.44;66.27;99914.69;4991405;28;20029;-82
2023/11/24 10:45:17;;;;;;;0.10;0.10;;;;;;;14.46;67.01;99901.63;4998433;28;20045;-84
2023/11/24 10:47:50;;;;;;;0.10;0.10;;;;;;;14.58;65.79;99906.72;4994729;28;20096;-82
2023/11/24 10:50:16;;;;;;;;;;;;;;;14.71;65.00;99903.16;5000855;28;20116;-83
2023/11/24 10:53:11;;;;;;;0.10;0.10;;;;;;;14.49;66.17;99889.19;5009941;28;19929;-80
2023/11/24 10:55:37;;;;;;;0.15;0.15;;;;;;;14.54;65.72;99883.63;4988182;28;20042;-80
2023/11/24 10:58:04;;;;;;;0.20;0.20;;;;;;;14.57;65.66;99883.41;4994143;28;20030;-85
2023/11/24 11:00:30;;;;;;;0.10;0.10;;;;;;;14.66;64.82;99892.28;5009462;28;20034;-85
2023/11/24 11:02:56;;;;;;;0.10;0.10;;;;;;;14.76;65.04;99893.22;5008430;28;20404;-89
2023/11/24 11:05:36;;;;;;;0.10;0.10;;;;;;;14.82;65.01;99895.34;4996976;28;20033;-84
2023/11/24 11:08:17;;;;;;;0.20;0.20;;;;;;;14.71;66.31;99882.34;5010438;28;20551;-90
2023/11/24 11:10:45;;;;;;;0.20;0.20;;;;;;;14.74;66.48;99874.28;5022955;28;20487;-87
2023/11/24 11:13:11;;;;;;;0.10;0.10;;;;;;;14.68;66.45;99870.38;4987518;28;20127;-91
2023/11/24 11:15:38;;;;;;;0.10;0.10;;;;;;;14.77;66.28;99876.66;5006297;28;20428;-85
2023/11/24 11:18:10;;;;;;;0.20;0.20;;;;;;;14.74;65.51;99882.91;5014148;28;20029;-86
2023/11/24 11:20:40;;;;;;;;;;;;;;;14.71;66.27;99879.72;5019155;28;20037;-83
2023/11/24 11:23:09;;;;;;;0.10;0.10;;;;;;;14.50;66.10;99875.25;5022932;28;19917;-86
2023/11/24 11:25:35;;;;;;;0.20;0.20;;;;;;;14.52;65.72;99870.72;5003008;28;20441;-92
2023/11/24 11:28:23;;;;;;;0.20;0.20;;;;;;;14.49;65.55;99855.38;5014262;28;20029;-90